aviador You're here:

LFYR Decoded Metar

ROMORANTIN/PRUNI in FRANCE
Report Time2018-02-22 08:30:00
UTC Time2018-02-22 08:45:20
Flight Rules mvfr MVFR
Wind030° at 05 kt
W.Decomp.*RWY 05: 4.7 kt HW 1.6 kt LCW
W.Rank030° ranks 10
Current wind is above 030° avg. (4.5)
Visibility5000 m
Phenomena:Mist
Clouds:N/A
Expected CloudBase > 1,600 ft AGL from Temp-Dew spread
CeilingNone
Temp00°C (ISA -14)
Dew Point-4°C (75% RH)
AAT-4.3°C
QNH1016 hPa
Density Alt-1,519 ft
Elevation282 ft
Report Wrong Elevation
Raw Report
METAR LFYR 220830Z AUTO 03005KT 310V070 5000 BR NSC 00/M04 Q1016 NOSIG=

Extra information for LFYR:More info

Metar Taf Metar & Taf Last 4 Metars F.Rules Stats Wind Profile Meteogram Temp Stats Airport Information Weather charts Add Link Nearby VenuesMetar ALERT Operation Metar Decoded Social comments